sensor_id;sensor_type;location;lat;lon;timestamp;P1;durP1;ratioP1;P2;durP2;ratioP2
48487;SDS011;34289;48.572;13.378;2022-07-10T00:02:26;7.32;;;4.47;;
48487;SDS011;34289;48.572;13.378;2022-07-10T00:04:51;4.32;;;3.90;;
48487;SDS011;34289;48.572;13.378;2022-07-10T00:07:17;7.15;;;4.25;;
48487;SDS011;34289;48.572;13.378;2022-07-10T00:09:42;6.28;;;4.13;;
48487;SDS011;34289;48.572;13.378;2022-07-10T00:12:09;8.40;;;4.75;;
48487;SDS011;34289;48.572;13.378;2022-07-10T00:14:34;4.55;;;4.07;;
48487;SDS011;34289;48.572;13.378;2022-07-10T00:17:00;9.45;;;4.30;;
48487;SDS011;34289;48.572;13.378;2022-07-10T00:19:25;6.55;;;4.40;;
48487;SDS011;34289;48.572;13.378;2022-07-10T00:21:51;6.70;;;4.13;;
48487;SDS011;34289;48.572;13.378;2022-07-10T00:24:17;10.45;;;3.97;;
48487;SDS011;34289;48.572;13.378;2022-07-10T00:26:42;7.22;;;4.15;;
48487;SDS011;34289;48.572;13.378;2022-07-10T00:29:08;6.57;;;4.00;;
48487;SDS011;34289;48.572;13.378;2022-07-10T00:31:33;7.65;;;4.78;;
48487;SDS011;34289;48.572;13.378;2022-07-10T00:33:59;8.20;;;4.00;;
48487;SDS011;34289;48.572;13.378;2022-07-10T00:36:25;6.55;;;3.85;;
48487;SDS011;34289;48.572;13.378;2022-07-10T00:38:50;4.38;;;3.97;;
48487;SDS011;34289;48.572;13.378;2022-07-10T00:41:16;6.47;;;4.35;;
48487;SDS011;34289;48.572;13.378;2022-07-10T00:43:52;5.80;;;4.07;;
48487;SDS011;34289;48.572;13.378;2022-07-10T00:46:22;6.18;;;4.15;;
48487;SDS011;34289;48.572;13.378;2022-07-10T00:48:48;9.20;;;4.50;;
48487;SDS011;34289;48.572;13.378;2022-07-10T00:51:14;6.63;;;4.15;;
48487;SDS011;34289;48.572;13.378;2022-07-10T00:53:42;5.38;;;4.45;;
48487;SDS011;34289;48.572;13.378;2022-07-10T00:56:10;4.93;;;4.43;;
48487;SDS011;34289;48.572;13.378;2022-07-10T01:01:09;7.32;;;4.70;;
48487;SDS011;34289;48.572;13.378;2022-07-10T01:03:35;7.35;;;4.78;;
48487;SDS011;34289;48.572;13.378;2022-07-10T01:06:01;5.05;;;4.53;;
48487;SDS011;34289;48.572;13.378;2022-07-10T01:08:26;4.90;;;4.40;;
48487;SDS011;34289;48.572;13.378;2022-07-10T01:10:53;7.40;;;4.63;;
48487;SDS011;34289;48.572;13.378;2022-07-10T01:13:18;6.20;;;4.55;;
48487;SDS011;34289;48.572;13.378;2022-07-10T01:15:45;6.30;;;4.47;;
48487;SDS011;34289;48.572;13.378;2022-07-10T01:18:11;8.45;;;4.88;;
48487;SDS011;34289;48.572;13.378;2022-07-10T01:20:38;5.60;;;4.03;;
48487;SDS011;34289;48.572;13.378;2022-07-10T01:23:03;7.32;;;4.80;;
48487;SDS011;34289;48.572;13.378;2022-07-10T01:25:29;6.35;;;5.38;;
48487;SDS011;34289;48.572;13.378;2022-07-10T01:27:55;4.93;;;4.43;;
48487;SDS011;34289;48.572;13.378;2022-07-10T01:30:20;4.65;;;4.25;;
48487;SDS011;34289;48.572;13.378;2022-07-10T01:32:46;7.90;;;4.80;;
48487;SDS011;34289;48.572;13.378;2022-07-10T01:35:12;5.25;;;4.75;;
48487;SDS011;34289;48.572;13.378;2022-07-10T01:37:39;4.93;;;4.43;;
48487;SDS011;34289;48.572;13.378;2022-07-10T01:40:05;9.18;;;4.70;;
48487;SDS011;34289;48.572;13.378;2022-07-10T01:42:32;10.93;;;5.20;;
48487;SDS011;34289;48.572;13.378;2022-07-10T01:44:58;17.55;;;4.88;;
48487;SDS011;34289;48.572;13.378;2022-07-10T01:47:24;6.85;;;5.07;;
48487;SDS011;34289;48.572;13.378;2022-07-10T01:49:51;11.85;;;5.03;;
48487;SDS011;34289;48.572;13.378;2022-07-10T01:52:20;13.07;;;5.07;;
48487;SDS011;34289;48.572;13.378;2022-07-10T01:54:46;6.50;;;5.03;;
48487;SDS011;34289;48.572;13.378;2022-07-10T01:57:12;6.05;;;4.75;;
48487;SDS011;34289;48.572;13.378;2022-07-10T01:59:39;8.77;;;5.40;;
48487;SDS011;34289;48.572;13.378;2022-07-10T02:02:05;8.98;;;4.95;;
48487;SDS011;34289;48.572;13.378;2022-07-10T02:04:31;8.38;;;5.35;;
48487;SDS011;34289;48.572;13.378;2022-07-10T02:07:12;7.07;;;6.00;;
48487;SDS011;34289;48.572;13.378;2022-07-10T02:09:40;9.07;;;5.20;;
48487;SDS011;34289;48.572;13.378;2022-07-10T02:12:09;9.70;;;5.95;;
48487;SDS011;34289;48.572;13.378;2022-07-10T02:14:40;10.18;;;5.93;;
48487;SDS011;34289;48.572;13.378;2022-07-10T02:17:06;9.85;;;5.82;;
48487;SDS011;34289;48.572;13.378;2022-07-10T02:19:32;7.32;;;5.72;;
48487;SDS011;34289;48.572;13.378;2022-07-10T02:21:59;8.10;;;5.90;;
48487;SDS011;34289;48.572;13.378;2022-07-10T02:24:25;9.95;;;6.13;;
48487;SDS011;34289;48.572;13.378;2022-07-10T02:26:50;7.35;;;6.15;;
48487;SDS011;34289;48.572;13.378;2022-07-10T02:29:16;5.78;;;5.15;;
48487;SDS011;34289;48.572;13.378;2022-07-10T02:31:42;5.45;;;4.70;;
48487;SDS011;34289;48.572;13.378;2022-07-10T02:34:09;8.35;;;5.65;;
48487;SDS011;34289;48.572;13.378;2022-07-10T02:36:35;5.70;;;4.70;;
48487;SDS011;34289;48.572;13.378;2022-07-10T02:39:03;8.45;;;5.30;;
48487;SDS011;34289;48.572;13.378;2022-07-10T02:41:29;9.80;;;6.30;;
48487;SDS011;34289;48.572;13.378;2022-07-10T02:43:55;8.55;;;5.80;;
48487;SDS011;34289;48.572;13.378;2022-07-10T02:46:21;7.07;;;6.05;;
48487;SDS011;34289;48.572;13.378;2022-07-10T02:48:47;8.65;;;5.25;;
48487;SDS011;34289;48.572;13.378;2022-07-10T02:51:13;9.88;;;5.32;;
48487;SDS011;34289;48.572;13.378;2022-07-10T02:53:39;5.55;;;4.97;;
48487;SDS011;34289;48.572;13.378;2022-07-10T02:56:04;5.93;;;4.60;;
48487;SDS011;34289;48.572;13.378;2022-07-10T02:58:32;8.88;;;5.00;;
48487;SDS011;34289;48.572;13.378;2022-07-10T03:00:58;8.30;;;5.15;;
48487;SDS011;34289;48.572;13.378;2022-07-10T03:03:24;8.73;;;4.82;;
48487;SDS011;34289;48.572;13.378;2022-07-10T03:05:53;6.57;;;5.50;;
48487;SDS011;34289;48.572;13.378;2022-07-10T03:08:18;6.30;;;5.05;;
48487;SDS011;34289;48.572;13.378;2022-07-10T03:10:44;6.35;;;5.80;;
48487;SDS011;34289;48.572;13.378;2022-07-10T03:13:10;11.40;;;5.55;;
48487;SDS011;34289;48.572;13.378;2022-07-10T03:15:35;6.25;;;5.25;;
48487;SDS011;34289;48.572;13.378;2022-07-10T03:18:01;7.53;;;5.68;;
48487;SDS011;34289;48.572;13.378;2022-07-10T03:20:27;8.93;;;5.57;;
48487;SDS011;34289;48.572;13.378;2022-07-10T03:22:52;6.32;;;5.30;;
48487;SDS011;34289;48.572;13.378;2022-07-10T03:25:18;8.07;;;5.30;;
48487;SDS011;34289;48.572;13.378;2022-07-10T03:27:44;9.75;;;4.57;;
48487;SDS011;34289;48.572;13.378;2022-07-10T03:30:09;10.60;;;4.40;;
48487;SDS011;34289;48.572;13.378;2022-07-10T03:32:35;7.40;;;4.38;;
48487;SDS011;34289;48.572;13.378;2022-07-10T03:35:01;7.18;;;5.13;;
48487;SDS011;34289;48.572;13.378;2022-07-10T03:37:27;9.57;;;5.13;;
48487;SDS011;34289;48.572;13.378;2022-07-10T03:39:53;8.80;;;6.20;;
48487;SDS011;34289;48.572;13.378;2022-07-10T03:42:19;8.38;;;5.75;;
48487;SDS011;34289;48.572;13.378;2022-07-10T03:44:45;10.32;;;6.10;;
48487;SDS011;34289;48.572;13.378;2022-07-10T03:47:10;10.00;;;5.88;;
48487;SDS011;34289;48.572;13.378;2022-07-10T03:49:36;11.15;;;6.68;;
48487;SDS011;34289;48.572;13.378;2022-07-10T03:52:04;8.18;;;5.40;;
48487;SDS011;34289;48.572;13.378;2022-07-10T03:54:30;9.48;;;5.75;;
48487;SDS011;34289;48.572;13.378;2022-07-10T03:56:56;8.23;;;5.25;;
48487;SDS011;34289;48.572;13.378;2022-07-10T04:02:12;6.70;;;6.10;;
48487;SDS011;34289;48.572;13.378;2022-07-10T04:04:37;7.32;;;5.60;;
48487;SDS011;34289;48.572;13.378;2022-07-10T04:07:03;11.20;;;5.95;;
48487;SDS011;34289;48.572;13.378;2022-07-10T04:09:29;7.35;;;6.03;;
48487;SDS011;34289;48.572;13.378;2022-07-10T04:11:55;6.50;;;5.15;;
48487;SDS011;34289;48.572;13.378;2022-07-10T04:14:21;6.78;;;6.15;;
48487;SDS011;34289;48.572;13.378;2022-07-10T04:16:47;6.03;;;4.63;;
48487;SDS011;34289;48.572;13.378;2022-07-10T04:19:12;7.47;;;5.40;;
48487;SDS011;34289;48.572;13.378;2022-07-10T04:21:38;7.60;;;6.82;;
48487;SDS011;34289;48.572;13.378;2022-07-10T04:24:04;7.97;;;5.32;;
48487;SDS011;34289;48.572;13.378;2022-07-10T04:26:29;7.15;;;6.50;;
48487;SDS011;34289;48.572;13.378;2022-07-10T04:28:55;9.45;;;7.38;;
48487;SDS011;34289;48.572;13.378;2022-07-10T04:31:21;8.40;;;7.53;;
48487;SDS011;34289;48.572;13.378;2022-07-10T04:33:46;11.30;;;7.60;;
48487;SDS011;34289;48.572;13.378;2022-07-10T04:36:13;9.40;;;8.07;;
48487;SDS011;34289;48.572;13.378;2022-07-10T04:38:38;9.68;;;8.68;;
48487;SDS011;34289;48.572;13.378;2022-07-10T04:41:04;9.50;;;8.60;;
48487;SDS011;34289;48.572;13.378;2022-07-10T04:43:30;8.45;;;7.75;;
48487;SDS011;34289;48.572;13.378;2022-07-10T04:45:56;8.80;;;7.10;;
48487;SDS011;34289;48.572;13.378;2022-07-10T04:48:21;7.38;;;6.68;;
48487;SDS011;34289;48.572;13.378;2022-07-10T04:50:47;9.50;;;6.60;;
48487;SDS011;34289;48.572;13.378;2022-07-10T04:53:13;9.70;;;6.97;;
48487;SDS011;34289;48.572;13.378;2022-07-10T04:55:38;7.68;;;6.90;;
48487;SDS011;34289;48.572;13.378;2022-07-10T04:58:05;9.80;;;7.85;;
48487;SDS011;34289;48.572;13.378;2022-07-10T05:00:31;10.65;;;9.13;;
48487;SDS011;34289;48.572;13.378;2022-07-10T05:02:57;12.23;;;11.10;;
48487;SDS011;34289;48.572;13.378;2022-07-10T05:05:22;13.93;;;9.50;;
48487;SDS011;34289;48.572;13.378;2022-07-10T05:07:48;14.48;;;10.38;;
48487;SDS011;34289;48.572;13.378;2022-07-10T05:10:14;11.93;;;9.95;;
48487;SDS011;34289;48.572;13.378;2022-07-10T05:12:39;11.25;;;10.10;;
48487;SDS011;34289;48.572;13.378;2022-07-10T05:15:05;13.55;;;9.18;;
48487;SDS011;34289;48.572;13.378;2022-07-10T05:17:32;12.00;;;8.80;;
48487;SDS011;34289;48.572;13.378;2022-07-10T05:19:57;11.60;;;8.73;;
48487;SDS011;34289;48.572;13.378;2022-07-10T05:22:23;14.48;;;8.27;;
48487;SDS011;34289;48.572;13.378;2022-07-10T05:24:49;11.55;;;8.40;;
48487;SDS011;34289;48.572;13.378;2022-07-10T05:27:15;10.35;;;9.35;;
48487;SDS011;34289;48.572;13.378;2022-07-10T05:29:45;12.50;;;8.95;;
48487;SDS011;34289;48.572;13.378;2022-07-10T05:32:11;9.65;;;7.93;;
48487;SDS011;34289;48.572;13.378;2022-07-10T05:34:37;10.35;;;7.55;;
48487;SDS011;34289;48.572;13.378;2022-07-10T05:37:02;8.95;;;7.22;;
48487;SDS011;34289;48.572;13.378;2022-07-10T05:39:29;10.38;;;7.88;;
48487;SDS011;34289;48.572;13.378;2022-07-10T05:41:55;10.80;;;7.72;;
48487;SDS011;34289;48.572;13.378;2022-07-10T05:44:22;9.90;;;8.52;;
48487;SDS011;34289;48.572;13.378;2022-07-10T05:46:48;10.18;;;7.63;;
48487;SDS011;34289;48.572;13.378;2022-07-10T05:49:14;12.65;;;8.10;;
48487;SDS011;34289;48.572;13.378;2022-07-10T05:51:39;11.73;;;8.90;;
48487;SDS011;34289;48.572;13.378;2022-07-10T05:54:05;15.18;;;8.45;;
48487;SDS011;34289;48.572;13.378;2022-07-10T05:56:31;11.15;;;8.00;;
48487;SDS011;34289;48.572;13.378;2022-07-10T05:58:57;12.55;;;8.65;;
48487;SDS011;34289;48.572;13.378;2022-07-10T06:01:23;12.50;;;8.10;;
48487;SDS011;34289;48.572;13.378;2022-07-10T06:03:49;11.25;;;8.45;;
48487;SDS011;34289;48.572;13.378;2022-07-10T06:06:15;11.88;;;8.75;;
48487;SDS011;34289;48.572;13.378;2022-07-10T06:08:41;9.23;;;8.05;;
48487;SDS011;34289;48.572;13.378;2022-07-10T06:11:07;10.25;;;8.63;;
48487;SDS011;34289;48.572;13.378;2022-07-10T06:13:33;10.07;;;7.85;;
48487;SDS011;34289;48.572;13.378;2022-07-10T06:15:59;8.93;;;7.00;;
48487;SDS011;34289;48.572;13.378;2022-07-10T06:18:24;8.30;;;7.38;;
48487;SDS011;34289;48.572;13.378;2022-07-10T06:20:50;9.00;;;7.45;;
48487;SDS011;34289;48.572;13.378;2022-07-10T06:23:16;13.75;;;7.28;;
48487;SDS011;34289;48.572;13.378;2022-07-10T06:25:41;8.88;;;7.25;;
48487;SDS011;34289;48.572;13.378;2022-07-10T06:28:07;9.13;;;7.45;;
48487;SDS011;34289;48.572;13.378;2022-07-10T06:30:33;9.40;;;6.25;;
48487;SDS011;34289;48.572;13.378;2022-07-10T06:32:59;9.63;;;7.40;;
48487;SDS011;34289;48.572;13.378;2022-07-10T06:35:24;10.90;;;7.00;;
48487;SDS011;34289;48.572;13.378;2022-07-10T06:37:50;7.68;;;6.68;;
48487;SDS011;34289;48.572;13.378;2022-07-10T06:40:16;7.35;;;6.18;;
48487;SDS011;34289;48.572;13.378;2022-07-10T06:42:45;7.97;;;5.68;;
48487;SDS011;34289;48.572;13.378;2022-07-10T06:45:11;9.50;;;6.15;;
48487;SDS011;34289;48.572;13.378;2022-07-10T06:47:36;9.60;;;5.60;;
48487;SDS011;34289;48.572;13.378;2022-07-10T06:50:21;7.65;;;5.90;;
48487;SDS011;34289;48.572;13.378;2022-07-10T06:52:48;6.47;;;5.47;;
48487;SDS011;34289;48.572;13.378;2022-07-10T06:55:14;6.72;;;4.90;;
48487;SDS011;34289;48.572;13.378;2022-07-10T06:57:41;9.00;;;6.10;;
48487;SDS011;34289;48.572;13.378;2022-07-10T07:00:07;8.55;;;4.60;;
48487;SDS011;34289;48.572;13.378;2022-07-10T07:02:34;10.90;;;5.50;;
48487;SDS011;34289;48.572;13.378;2022-07-10T07:05:00;7.45;;;4.65;;
48487;SDS011;34289;48.572;13.378;2022-07-10T07:07:26;7.80;;;4.35;;
48487;SDS011;34289;48.572;13.378;2022-07-10T07:09:52;7.05;;;4.35;;
48487;SDS011;34289;48.572;13.378;2022-07-10T07:12:18;7.40;;;4.10;;
48487;SDS011;34289;48.572;13.378;2022-07-10T07:14:44;5.82;;;4.43;;
48487;SDS011;34289;48.572;13.378;2022-07-10T07:17:09;8.52;;;3.88;;
48487;SDS011;34289;48.572;13.378;2022-07-10T07:19:37;7.97;;;4.22;;
48487;SDS011;34289;48.572;13.378;2022-07-10T07:22:22;5.10;;;3.80;;
48487;SDS011;34289;48.572;13.378;2022-07-10T07:25:08;4.60;;;3.50;;
48487;SDS011;34289;48.572;13.378;2022-07-10T07:27:36;3.67;;;3.38;;
48487;SDS011;34289;48.572;13.378;2022-07-10T07:30:04;5.80;;;3.20;;
48487;SDS011;34289;48.572;13.378;2022-07-10T07:32:31;4.53;;;2.80;;
48487;SDS011;34289;48.572;13.378;2022-07-10T07:34:57;4.53;;;3.22;;
48487;SDS011;34289;48.572;13.378;2022-07-10T07:37:24;2.83;;;2.50;;
48487;SDS011;34289;48.572;13.378;2022-07-10T07:40:10;2.92;;;2.47;;
48487;SDS011;34289;48.572;13.378;2022-07-10T07:42:37;2.53;;;2.20;;
48487;SDS011;34289;48.572;13.378;2022-07-10T07:45:04;6.30;;;2.20;;
48487;SDS011;34289;48.572;13.378;2022-07-10T07:47:30;2.83;;;2.20;;
48487;SDS011;34289;48.572;13.378;2022-07-10T07:50:07;6.60;;;3.10;;
48487;SDS011;34289;48.572;13.378;2022-07-10T07:52:33;3.03;;;2.40;;
48487;SDS011;34289;48.572;13.378;2022-07-10T07:55:00;3.78;;;2.90;;
48487;SDS011;34289;48.572;13.378;2022-07-10T07:57:26;7.95;;;3.88;;
48487;SDS011;34289;48.572;13.378;2022-07-10T07:59:52;3.83;;;3.20;;
48487;SDS011;34289;48.572;13.378;2022-07-10T08:02:17;4.47;;;3.10;;
48487;SDS011;34289;48.572;13.378;2022-07-10T08:04:47;5.10;;;2.90;;
48487;SDS011;34289;48.572;13.378;2022-07-10T08:07:12;3.13;;;2.53;;
48487;SDS011;34289;48.572;13.378;2022-07-10T08:09:38;4.38;;;2.47;;
48487;SDS011;34289;48.572;13.378;2022-07-10T08:12:04;3.75;;;2.55;;
48487;SDS011;34289;48.572;13.378;2022-07-10T08:14:30;3.45;;;2.40;;
48487;SDS011;34289;48.572;13.378;2022-07-10T08:16:56;5.32;;;2.08;;
48487;SDS011;34289;48.572;13.378;2022-07-10T08:19:21;6.43;;;2.22;;
48487;SDS011;34289;48.572;13.378;2022-07-10T08:21:47;3.72;;;2.20;;
48487;SDS011;34289;48.572;13.378;2022-07-10T08:24:13;4.90;;;2.50;;
48487;SDS011;34289;48.572;13.378;2022-07-10T08:26:39;3.15;;;2.30;;
48487;SDS011;34289;48.572;13.378;2022-07-10T08:29:06;2.78;;;2.45;;
48487;SDS011;34289;48.572;13.378;2022-07-10T08:31:32;5.05;;;2.92;;
48487;SDS011;34289;48.572;13.378;2022-07-10T08:34:00;4.25;;;2.25;;
48487;SDS011;34289;48.572;13.378;2022-07-10T08:36:26;4.00;;;2.08;;
48487;SDS011;34289;48.572;13.378;2022-07-10T08:38:52;2.72;;;1.88;;
48487;SDS011;34289;48.572;13.378;2022-07-10T08:41:24;5.82;;;2.25;;
48487;SDS011;34289;48.572;13.378;2022-07-10T08:43:51;3.08;;;1.90;;
48487;SDS011;34289;48.572;13.378;2022-07-10T08:46:17;5.82;;;2.33;;
48487;SDS011;34289;48.572;13.378;2022-07-10T08:48:47;4.28;;;2.20;;
48487;SDS011;34289;48.572;13.378;2022-07-10T08:51:17;10.80;;;2.10;;
48487;SDS011;34289;48.572;13.378;2022-07-10T08:54:04;6.45;;;2.42;;
48487;SDS011;34289;48.572;13.378;2022-07-10T08:56:31;3.28;;;2.10;;
48487;SDS011;34289;48.572;13.378;2022-07-10T08:59:01;8.05;;;2.47;;
48487;SDS011;34289;48.572;13.378;2022-07-10T09:01:31;2.28;;;2.05;;
48487;SDS011;34289;48.572;13.378;2022-07-10T09:03:57;4.53;;;2.00;;
48487;SDS011;34289;48.572;13.378;2022-07-10T09:06:23;4.32;;;2.10;;
48487;SDS011;34289;48.572;13.378;2022-07-10T09:09:00;3.42;;;2.58;;
48487;SDS011;34289;48.572;13.378;2022-07-10T09:11:27;10.27;;;2.15;;
48487;SDS011;34289;48.572;13.378;2022-07-10T09:13:57;3.05;;;1.98;;
48487;SDS011;34289;48.572;13.378;2022-07-10T09:16:24;3.03;;;1.80;;
48487;SDS011;34289;48.572;13.378;2022-07-10T09:19:16;7.55;;;1.85;;
48487;SDS011;34289;48.572;13.378;2022-07-10T09:21:42;3.75;;;1.88;;
48487;SDS011;34289;48.572;13.378;2022-07-10T09:24:09;4.30;;;2.03;;
48487;SDS011;34289;48.572;13.378;2022-07-10T09:26:39;3.65;;;1.70;;
48487;SDS011;34289;48.572;13.378;2022-07-10T09:29:06;6.55;;;2.08;;
48487;SDS011;34289;48.572;13.378;2022-07-10T09:31:48;2.85;;;1.88;;
48487;SDS011;34289;48.572;13.378;2022-07-10T09:34:15;3.20;;;1.70;;
48487;SDS011;34289;48.572;13.378;2022-07-10T09:36:41;6.22;;;1.75;;
48487;SDS011;34289;48.572;13.378;2022-07-10T09:39:07;3.20;;;1.70;;
48487;SDS011;34289;48.572;13.378;2022-07-10T09:41:33;5.28;;;2.10;;
48487;SDS011;34289;48.572;13.378;2022-07-10T09:44:05;6.03;;;2.00;;
48487;SDS011;34289;48.572;13.378;2022-07-10T09:46:37;2.67;;;1.52;;
48487;SDS011;34289;48.572;13.378;2022-07-10T09:49:13;2.88;;;1.65;;
48487;SDS011;34289;48.572;13.378;2022-07-10T09:51:40;4.80;;;1.90;;
48487;SDS011;34289;48.572;13.378;2022-07-10T09:54:10;3.70;;;1.52;;
48487;SDS011;34289;48.572;13.378;2022-07-10T09:56:40;3.25;;;1.65;;
48487;SDS011;34289;48.572;13.378;2022-07-10T09:59:14;2.55;;;1.60;;
48487;SDS011;34289;48.572;13.378;2022-07-10T10:01:45;2.03;;;1.67;;
48487;SDS011;34289;48.572;13.378;2022-07-10T10:04:13;2.30;;;2.10;;
48487;SDS011;34289;48.572;13.378;2022-07-10T10:06:41;7.40;;;2.05;;
48487;SDS011;34289;48.572;13.378;2022-07-10T10:09:08;9.45;;;1.92;;
48487;SDS011;34289;48.572;13.378;2022-07-10T10:11:40;10.93;;;2.38;;
48487;SDS011;34289;48.572;13.378;2022-07-10T10:14:08;3.70;;;1.63;;
48487;SDS011;34289;48.572;13.378;2022-07-10T10:16:35;4.10;;;1.88;;
48487;SDS011;34289;48.572;13.378;2022-07-10T10:19:03;2.08;;;1.70;;
48487;SDS011;34289;48.572;13.378;2022-07-10T10:21:53;5.50;;;2.08;;
48487;SDS011;34289;48.572;13.378;2022-07-10T10:24:21;3.10;;;1.52;;
48487;SDS011;34289;48.572;13.378;2022-07-10T10:26:48;5.07;;;1.70;;
48487;SDS011;34289;48.572;13.378;2022-07-10T10:29:14;4.32;;;2.05;;
48487;SDS011;34289;48.572;13.378;2022-07-10T10:31:41;2.58;;;1.30;;
48487;SDS011;34289;48.572;13.378;2022-07-10T10:34:07;5.22;;;1.65;;
48487;SDS011;34289;48.572;13.378;2022-07-10T10:39:03;3.83;;;1.77;;
48487;SDS011;34289;48.572;13.378;2022-07-10T10:41:49;4.85;;;1.80;;
48487;SDS011;34289;48.572;13.378;2022-07-10T10:52:16;2.33;;;1.52;;
48487;SDS011;34289;48.572;13.378;2022-07-10T11:00:03;4.70;;;2.08;;
48487;SDS011;34289;48.572;13.378;2022-07-10T11:02:34;2.85;;;1.67;;
48487;SDS011;34289;48.572;13.378;2022-07-10T11:07:58;4.90;;;2.00;;
48487;SDS011;34289;48.572;13.378;2022-07-10T11:10:35;5.25;;;2.15;;
48487;SDS011;34289;48.572;13.378;2022-07-10T11:13:09;6.88;;;1.75;;
48487;SDS011;34289;48.572;13.378;2022-07-10T11:15:42;1.70;;;1.50;;
48487;SDS011;34289;48.572;13.378;2022-07-10T11:18:16;3.08;;;1.70;;
48487;SDS011;34289;48.572;13.378;2022-07-10T11:20:51;5.28;;;1.70;;
48487;SDS011;34289;48.572;13.378;2022-07-10T11:25:52;2.22;;;1.52;;
48487;SDS011;34289;48.572;13.378;2022-07-10T11:28:32;5.47;;;2.15;;
48487;SDS011;34289;48.572;13.378;2022-07-10T11:31:20;3.83;;;2.22;;
48487;SDS011;34289;48.572;13.378;2022-07-10T11:33:48;3.97;;;1.92;;
48487;SDS011;34289;48.572;13.378;2022-07-10T11:36:17;5.00;;;1.88;;
48487;SDS011;34289;48.572;13.378;2022-07-10T11:39:03;4.57;;;1.88;;
48487;SDS011;34289;48.572;13.378;2022-07-10T11:41:29;4.60;;;2.58;;
48487;SDS011;34289;48.572;13.378;2022-07-10T11:43:56;3.45;;;2.00;;
48487;SDS011;34289;48.572;13.378;2022-07-10T11:46:28;5.40;;;1.80;;
48487;SDS011;34289;48.572;13.378;2022-07-10T11:48:58;2.15;;;1.60;;
48487;SDS011;34289;48.572;13.378;2022-07-10T11:51:25;3.28;;;1.70;;
48487;SDS011;34289;48.572;13.378;2022-07-10T11:53:59;3.03;;;1.55;;
48487;SDS011;34289;48.572;13.378;2022-07-10T11:56:26;3.55;;;2.05;;
48487;SDS011;34289;48.572;13.378;2022-07-10T11:58:58;2.28;;;1.88;;
48487;SDS011;34289;48.572;13.378;2022-07-10T12:01:26;3.92;;;1.85;;
48487;SDS011;34289;48.572;13.378;2022-07-10T12:04:00;3.03;;;1.98;;
48487;SDS011;34289;48.572;13.378;2022-07-10T12:06:32;7.07;;;2.00;;
48487;SDS011;34289;48.572;13.378;2022-07-10T12:09:03;2.88;;;1.45;;
48487;SDS011;34289;48.572;13.378;2022-07-10T12:11:33;3.30;;;1.80;;
48487;SDS011;34289;48.572;13.378;2022-07-10T12:16:48;3.72;;;1.63;;
48487;SDS011;34289;48.572;13.378;2022-07-10T12:19:17;3.05;;;1.65;;
48487;SDS011;34289;48.572;13.378;2022-07-10T12:21:55;9.48;;;1.95;;
48487;SDS011;34289;48.572;13.378;2022-07-10T12:24:21;4.05;;;1.70;;
48487;SDS011;34289;48.572;13.378;2022-07-10T12:26:49;2.38;;;1.60;;
48487;SDS011;34289;48.572;13.378;2022-07-10T12:29:23;2.78;;;1.60;;
48487;SDS011;34289;48.572;13.378;2022-07-10T12:31:51;3.90;;;1.80;;
48487;SDS011;34289;48.572;13.378;2022-07-10T12:34:19;2.35;;;1.60;;
48487;SDS011;34289;48.572;13.378;2022-07-10T12:36:47;1.95;;;1.50;;
48487;SDS011;34289;48.572;13.378;2022-07-10T12:39:14;4.55;;;1.58;;
48487;SDS011;34289;48.572;13.378;2022-07-10T12:44:39;4.40;;;1.98;;
48487;SDS011;34289;48.572;13.378;2022-07-10T12:47:10;8.73;;;1.67;;
48487;SDS011;34289;48.572;13.378;2022-07-10T12:49:47;4.00;;;1.40;;
48487;SDS011;34289;48.572;13.378;2022-07-10T12:57:48;6.82;;;1.65;;
48487;SDS011;34289;48.572;13.378;2022-07-10T13:00:29;2.50;;;1.77;;
48487;SDS011;34289;48.572;13.378;2022-07-10T13:03:08;2.95;;;1.50;;
48487;SDS011;34289;48.572;13.378;2022-07-10T13:05:39;7.55;;;2.05;;
48487;SDS011;34289;48.572;13.378;2022-07-10T13:08:12;2.70;;;1.55;;
48487;SDS011;34289;48.572;13.378;2022-07-10T13:10:51;4.05;;;1.92;;
48487;SDS011;34289;48.572;13.378;2022-07-10T13:13:18;3.40;;;1.60;;
48487;SDS011;34289;48.572;13.378;2022-07-10T13:15:44;5.07;;;1.77;;
48487;SDS011;34289;48.572;13.378;2022-07-10T13:18:19;2.70;;;1.75;;
48487;SDS011;34289;48.572;13.378;2022-07-10T13:20:46;3.05;;;1.58;;
48487;SDS011;34289;48.572;13.378;2022-07-10T13:23:16;3.05;;;1.77;;
48487;SDS011;34289;48.572;13.378;2022-07-10T13:25:46;2.65;;;1.88;;
48487;SDS011;34289;48.572;13.378;2022-07-10T13:28:12;1.98;;;1.50;;
48487;SDS011;34289;48.572;13.378;2022-07-10T13:30:38;2.70;;;1.80;;
48487;SDS011;34289;48.572;13.378;2022-07-10T13:33:07;4.60;;;1.83;;
48487;SDS011;34289;48.572;13.378;2022-07-10T13:35:33;1.70;;;1.50;;
48487;SDS011;34289;48.572;13.378;2022-07-10T13:37:59;3.03;;;1.83;;
48487;SDS011;34289;48.572;13.378;2022-07-10T13:40:26;2.05;;;1.50;;
48487;SDS011;34289;48.572;13.378;2022-07-10T13:42:56;2.85;;;1.73;;
48487;SDS011;34289;48.572;13.378;2022-07-10T13:45:25;4.28;;;1.60;;
48487;SDS011;34289;48.572;13.378;2022-07-10T13:47:55;3.22;;;1.50;;
48487;SDS011;34289;48.572;13.378;2022-07-10T13:50:23;3.70;;;1.67;;
48487;SDS011;34289;48.572;13.378;2022-07-10T13:52:50;5.68;;;2.20;;
48487;SDS011;34289;48.572;13.378;2022-07-10T13:55:16;3.88;;;1.80;;
48487;SDS011;34289;48.572;13.378;2022-07-10T13:57:42;2.63;;;1.75;;
48487;SDS011;34289;48.572;13.378;2022-07-10T14:00:08;1.55;;;1.45;;
48487;SDS011;34289;48.572;13.378;2022-07-10T14:02:34;2.17;;;1.40;;
48487;SDS011;34289;48.572;13.378;2022-07-10T14:05:00;1.60;;;1.50;;
48487;SDS011;34289;48.572;13.378;2022-07-10T14:07:26;2.35;;;1.60;;
48487;SDS011;34289;48.572;13.378;2022-07-10T14:09:51;3.00;;;1.63;;
48487;SDS011;34289;48.572;13.378;2022-07-10T14:12:17;2.83;;;1.67;;
48487;SDS011;34289;48.572;13.378;2022-07-10T14:14:43;4.40;;;1.73;;
48487;SDS011;34289;48.572;13.378;2022-07-10T14:17:09;3.22;;;1.88;;
48487;SDS011;34289;48.572;13.378;2022-07-10T14:19:34;2.45;;;1.42;;
48487;SDS011;34289;48.572;13.378;2022-07-10T14:22:00;3.55;;;1.30;;
48487;SDS011;34289;48.572;13.378;2022-07-10T14:24:26;3.63;;;1.70;;
48487;SDS011;34289;48.572;13.378;2022-07-10T14:26:52;2.75;;;1.50;;
48487;SDS011;34289;48.572;13.378;2022-07-10T14:29:18;1.95;;;1.60;;
48487;SDS011;34289;48.572;13.378;2022-07-10T14:31:44;4.47;;;1.50;;
48487;SDS011;34289;48.572;13.378;2022-07-10T14:34:13;2.42;;;1.50;;
48487;SDS011;34289;48.572;13.378;2022-07-10T14:36:43;3.20;;;1.27;;
48487;SDS011;34289;48.572;13.378;2022-07-10T14:39:08;4.03;;;1.65;;
48487;SDS011;34289;48.572;13.378;2022-07-10T14:41:34;2.30;;;1.30;;
48487;SDS011;34289;48.572;13.378;2022-07-10T14:44:00;1.67;;;1.40;;
48487;SDS011;34289;48.572;13.378;2022-07-10T14:46:28;2.05;;;1.20;;
48487;SDS011;34289;48.572;13.378;2022-07-10T14:48:54;3.33;;;1.83;;
48487;SDS011;34289;48.572;13.378;2022-07-10T14:51:20;3.13;;;1.65;;
48487;SDS011;34289;48.572;13.378;2022-07-10T14:53:45;1.55;;;1.33;;
48487;SDS011;34289;48.572;13.378;2022-07-10T14:56:13;1.95;;;1.40;;
48487;SDS011;34289;48.572;13.378;2022-07-10T15:01:10;2.13;;;1.42;;
48487;SDS011;34289;48.572;13.378;2022-07-10T15:03:36;2.75;;;1.45;;
48487;SDS011;34289;48.572;13.378;2022-07-10T15:06:01;4.82;;;1.85;;
48487;SDS011;34289;48.572;13.378;2022-07-10T15:08:27;2.70;;;1.65;;
48487;SDS011;34289;48.572;13.378;2022-07-10T15:10:53;2.63;;;1.48;;
48487;SDS011;34289;48.572;13.378;2022-07-10T15:13:20;2.22;;;1.42;;
48487;SDS011;34289;48.572;13.378;2022-07-10T15:15:45;2.53;;;1.50;;
48487;SDS011;34289;48.572;13.378;2022-07-10T15:18:13;3.22;;;2.00;;